| time (UTC) | temp C | wind direction | speed KPH | gust KPH | rain 1hr cm | rain 24hr cm | rain mn cm | humidity % | barometer mb |
| 20260508213021 | 26 | 3 | 16.1 | 22.5 | 0.00 | 2.26 | 2.26 | 30 | 1011.4 |
| 20260508212051 | 26 | 9 | 12.9 | 19.3 | 0.00 | 2.26 | 2.26 | 30 | 1011.6 |
| 20260508211020 | 26 | 337 | 16.1 | 25.7 | 0.00 | 2.26 | 2.26 | 30 | 1011.6 |
| 20260508210019 | 26 | 340 | 14.5 | 25.7 | 0.00 | 2.26 | 2.26 | 30 | 1011.6 |
| 20260508205027 | 26 | 326 | 12.9 | 22.5 | 0.00 | 2.26 | 2.26 | 30 | 1011.7 |
| 20260508204039 | 26 | 339 | 14.5 | 22.5 | 2.26 | 2.26 | 2.26 | 30 | 1011.8 |
| 20260508203029 | 26 | 319 | 12.9 | 19.3 | 2.26 | 2.26 | 2.26 | 30 | 1011.9 |
| 20260508202020 | 25 | 17 | 11.3 | 17.7 | 2.26 | 2.26 | 2.26 | 31 | 1011.9 |
| 20260508201030 | 25 | 342 | 14.5 | 20.9 | 2.26 | 2.26 | 2.26 | 31 | 1012.0 |
| 20260508200123 | 25 | 343 | 16.1 | 24.1 | 2.26 | 2.26 | 2.26 | 31 | 1012.1 |
| 20260508195047 | 25 | 347 | 17.7 | 19.3 | 2.26 | 2.26 | 2.26 | 32 | 1012.1 |
| 20260508194018 | 25 | 360 | 17.7 | 25.7 | 0.00 | 0.00 | 0.00 | 32 | 1012.1 |
| 20260508193033 | 25 | 302 | 14.5 | 19.3 | 0.00 | 0.00 | 0.00 | 32 | 1012.1 |
| 20260508192024 | 25 | 332 | 16.1 | 27.4 | 0.00 | 0.00 | 0.00 | 32 | 1012.2 |
| 20260508191054 | 25 | 3 | 19.3 | 30.6 | 0.00 | 0.00 | 0.00 | 32 | 1012.3 |
| 20260508190042 | 25 | 353 | 19.3 | 25.7 | 0.00 | 0.00 | 0.00 | 33 | 1012.4 |
| 20260508185114 | 25 | 2 | 16.1 | 27.4 | 0.00 | 0.00 | 0.00 | 34 | 1012.4 |
| 20260508184019 | 25 | 342 | 17.7 | 25.7 | 0.00 | 0.00 | 0.00 | 34 | 1012.4 |
| 20260508183044 | 23 | 347 | 12.9 | 16.1 | 0.00 | 0.00 | 0.00 | 35 | 1012.4 |
| 20260508182033 | 23 | 349 | 16.1 | 20.9 | 0.00 | 0.00 | 0.00 | 34 | 1012.5 |
| 20260508181023 | 25 | 346 | 12.9 | 22.5 | 0.00 | 0.00 | 0.00 | 35 | 1012.7 |
| 20260508180025 | 24 | 333 | 12.9 | 17.7 | 0.00 | 0.00 | 0.00 | 36 | 1012.8 |
| 20260508175039 | 24 | 304 | 14.5 | 20.9 | 0.00 | 0.00 | 0.00 | 36 | 1012.9 |
| 20260508174048 | 23 | 318 | 14.5 | 19.3 | 0.00 | 0.00 | 0.00 | 37 | 1012.9 |
| 20260508173019 | 23 | 8.0 | 8.0 | 0.00 | 0.00 | 0.00 | 37 | 1012.8 | |
| 20260508172021 | 23 | 10 | 12.9 | 17.7 | 0.00 | 0.00 | 0.00 | 36 | 1012.7 |
| 20260508171029 | 25 | 342 | 12.9 | 20.9 | 0.00 | 0.00 | 0.00 | 34 | 1012.6 |
| 20260508170022 | 25 | 346 | 11.3 | 14.5 | 0.00 | 0.00 | 0.00 | 36 | 1012.6 |
| 20260508165028 | 25 | 331 | 8.0 | 12.9 | 0.00 | 0.00 | 0.00 | 38 | 1012.6 |
| 20260508164021 | 24 | 323 | 6.4 | 11.3 | 0.00 | 0.00 | 0.00 | 39 | 1012.5 |
| 20260508163024 | 25 | 283 | 6.4 | 11.3 | 0.00 | 0.00 | 0.00 | 38 | 1012.5 |
| 20260508162033 | 26 | 264 | 6.4 | 11.3 | 0.00 | 0.00 | 0.00 | 37 | 1012.2 |
| 20260508161024 | 28 | 19 | 4.8 | 6.4 | 0.00 | 0.00 | 0.00 | 36 | 1012.3 |
| 20260508160048 | 27 | 199 | 4.8 | 8.0 | 0.00 | 0.00 | 0.00 | 37 | 1012.3 |
| 20260508155054 | 27 | 293 | 4.8 | 8.0 | 0.00 | 0.00 | 0.00 | 36 | 1012.2 |
| 20260508154024 | 26 | 247 | 4.8 | 6.4 | 0.00 | 0.00 | 0.00 | 38 | 1012.2 |
| 20260508153054 | 27 | 32 | 3.2 | 4.8 | 0.00 | 0.00 | 0.00 | 37 | 1012.1 |
| 20260508152030 | 27 | 148 | 1.6 | 3.2 | 0.00 | 0.00 | 0.00 | 37 | 1012.1 |
| 20260508151018 | 26 | 351 | 3.2 | 4.8 | 0.00 | 0.00 | 0.00 | 37 | 1012.1 |
| 20260508150018 | 26 | 56 | 1.6 | 3.2 | 0.00 | 0.00 | 0.00 | 37 | 1012.1 |
| 20260508145032 | 25 | 119 | 3.2 | 3.2 | 0.00 | 0.00 | 0.00 | 40 | 1012.0 |
| 20260508144028 | 24 | 124 | 0.0 | 1.6 | 0.00 | 0.00 | 0.00 | 42 | 1012.0 |
| 20260508143027 | 23 | 0.0 | 0.0 | 0.00 | 0.00 | 0.00 | 45 | 1012.0 | |
| 20260508142032 | 21 | 0.0 | 0.0 | 0.00 | 0.00 | 0.00 | 49 | 1011.9 | |
| 20260508141020 | 20 | 180 | 0.0 | 3.2 | 0.00 | 0.00 | 0.00 | 51 | 1011.8 |
| 20260508140020 | 18 | 0.0 | 0.0 | 0.00 | 0.00 | 0.00 | 53 | 1011.8 | |
| 20260508135027 | 16 | 0.0 | 0.0 | 0.00 | 0.00 | 0.00 | 57 | 1011.9 | |
| 20260508134028 | 14 | 0.0 | 0.0 | 0.00 | 0.00 | 0.00 | 63 | 1011.5 | |
| 20260508133017 | 12 | 0.0 | 0.0 | 0.00 | 0.00 | 0.00 | 69 | 1011.5 | |
| 20260508132026 | 10 | 0.0 | 0.0 | 0.00 | 0.00 | 0.00 | 73 | 1011.5 | |
| 20260508131028 | 8 | 0.0 | 0.0 | 0.00 | 0.00 | 0.00 | 76 | 1011.5 | |
| 20260508130033 | 7 | 0.0 | 0.0 | 0.00 | 0.00 | 0.00 | 78 | 1011.4 | |
| 20260508125019 | 7 | 115 | 1.6 | 4.8 | 0.00 | 0.00 | 0.00 | 78 | 1011.1 |
| 20260508124022 | 7 | 351 | 1.6 | 3.2 | 0.00 | 0.00 | 0.00 | 77 | 1011.1 |
| 20260508123032 | 7 | 0.0 | 0.0 | 0.00 | 0.00 | 0.00 | 76 | 1011.1 | |
| 20260508122021 | 8 | 210 | 1.6 | 4.8 | 0.00 | 0.00 | 0.00 | 75 | 1010.8 |
| 20260508121020 | 8 | 111 | 1.6 | 4.8 | 0.00 | 0.00 | 0.00 | 74 | 1010.9 |
| 20260508120030 | 8 | 111 | 3.2 | 6.4 | 0.00 | 0.00 | 0.00 | 74 | 1010.9 |
| 20260508115019 | 8 | 0.0 | 0.0 | 0.00 | 0.00 | 0.00 | 73 | 1010.8 | |
| 20260508114021 | 8 | 0.0 | 0.0 | 0.00 | 0.00 | 0.00 | 72 | 1010.8 | |
| 20260508113112 | 9 | 141 | 0.0 | 3.2 | 0.00 | 0.00 | 0.00 | 72 | 1010.8 |
| 20260508112042 | 9 | 71 | 3.2 | 3.2 | 0.00 | 0.00 | 0.00 | 71 | 1010.6 |
| 20260508111052 | 9 | 343 | 3.2 | 4.8 | 0.00 | 0.00 | 0.00 | 72 | 1010.6 |
| 20260508110023 | 9 | 0.0 | 0.0 | 0.00 | 0.00 | 0.00 | 72 | 1010.6 | |
| 20260508105023 | 9 | 53 | 3.2 | 4.8 | 0.00 | 0.00 | 0.00 | 72 | 1010.5 |
| 20260508104033 | 9 | 37 | 3.2 | 4.8 | 0.00 | 0.00 | 0.00 | 73 | 1010.4 |
| 20260508103023 | 9 | 92 | 3.2 | 4.8 | 0.00 | 0.00 | 0.00 | 73 | 1010.4 |
| 20260508102032 | 8 | 55 | 3.2 | 4.8 | 0.00 | 0.00 | 0.00 | 73 | 1010.4 |
| 20260508101027 | 9 | 0.0 | 0.0 | 0.00 | 0.00 | 0.00 | 73 | 1010.4 | |
| 20260508100028 | 9 | 98 | 3.2 | 6.4 | 0.00 | 0.00 | 0.00 | 72 | 1010.4 |
| 20260508095031 | 9 | 99 | 3.2 | 3.2 | 0.00 | 0.00 | 0.00 | 72 | 1010.4 |
| 20260508094022 | 9 | 58 | 1.6 | 3.2 | 0.00 | 0.00 | 0.00 | 71 | 1010.4 |
| 20260508093022 | 10 | 0.0 | 0.0 | 0.00 | 0.00 | 0.00 | 70 | 1010.2 | |
| 20260508092050 | 10 | 11 | 0.0 | 3.2 | 0.00 | 0.00 | 0.00 | 66 | 1010.2 |
| 20260508091043 | 10 | 41 | 3.2 | 4.8 | 0.00 | 0.00 | 0.00 | 66 | 1010.1 |
| 20260508090018 | 11 | 44 | 3.2 | 3.2 | 0.00 | 0.00 | 0.00 | 66 | 1010.0 |
| 20260508085027 | 10 | 45 | 3.2 | 4.8 | 0.00 | 0.00 | 0.00 | 66 | 1010.2 |
| 20260508084026 | 10 | 39 | 3.2 | 4.8 | 0.00 | 0.00 | 0.00 | 66 | 1010.2 |
| 20260508083017 | 11 | 320 | 3.2 | 4.8 | 0.00 | 0.00 | 0.00 | 66 | 1010.1 |
| 20260508082024 | 11 | 66 | 3.2 | 3.2 | 0.00 | 0.00 | 0.00 | 66 | 1010.1 |
| 20260508081030 | 11 | 56 | 3.2 | 4.8 | 0.00 | 0.00 | 0.00 | 66 | 1010.0 |
| 20260508080039 | 11 | 55 | 3.2 | 4.8 | 0.00 | 0.00 | 0.00 | 67 | 1010.0 |
| 20260508075020 | 11 | 61 | 4.8 | 6.4 | 0.00 | 0.00 | 0.00 | 67 | 1010.1 |
| 20260508074027 | 11 | 33 | 3.2 | 6.4 | 0.00 | 0.00 | 0.00 | 66 | 1010.1 |
| 20260508073054 | 11 | 59 | 3.2 | 3.2 | 0.00 | 0.00 | 0.00 | 67 | 1010.1 |
| 20260508072106 | 11 | 97 | 3.2 | 4.8 | 0.00 | 0.00 | 0.00 | 66 | 1010.2 |
| 20260508071026 | 11 | 230 | 1.6 | 3.2 | 0.00 | 0.00 | 0.00 | 66 | 1010.1 |
| 20260508070035 | 11 | 258 | 1.6 | 4.8 | 0.00 | 0.00 | 0.00 | 64 | 1010.0 |
| 20260508065024 | 12 | 0.0 | 0.0 | 0.00 | 0.00 | 0.00 | 64 | 1010.1 | |
| 20260508064034 | 12 | 137 | 3.2 | 3.2 | 0.00 | 0.00 | 0.00 | 62 | 1010.1 |
| 20260508063025 | 12 | 111 | 3.2 | 4.8 | 0.00 | 0.00 | 0.00 | 61 | 1009.9 |
| 20260508062027 | 12 | 35 | 3.2 | 4.8 | 0.00 | 0.00 | 0.00 | 60 | 1010.0 |
| 20260508061034 | 12 | 326 | 3.2 | 4.8 | 0.00 | 0.00 | 0.00 | 61 | 1009.9 |
| 20260508060024 | 13 | 0.0 | 0.0 | 0.00 | 0.00 | 0.00 | 60 | 1009.8 | |
| 20260508055028 | 13 | 83 | 4.8 | 4.8 | 0.00 | 0.00 | 0.00 | 59 | 1009.8 |
| 20260508054034 | 13 | 61 | 3.2 | 3.2 | 0.00 | 0.00 | 0.00 | 58 | 1009.5 |
| 20260508053026 | 13 | 360 | 3.2 | 4.8 | 0.00 | 0.00 | 0.00 | 58 | 1009.5 |
| 20260508052033 | 14 | 333 | 3.2 | 3.2 | 0.00 | 0.00 | 0.00 | 57 | 1009.5 |
| 20260508051023 | 14 | 16 | 3.2 | 4.8 | 0.00 | 0.00 | 0.00 | 56 | 1009.5 |
| 20260508050034 | 15 | 350 | 3.2 | 3.2 | 0.00 | 0.00 | 0.00 | 54 | 1009.4 |
| 20260508045027 | 15 | 79 | 4.8 | 6.4 | 0.00 | 0.00 | 0.00 | 54 | 1009.4 |
| 20260508044022 | 15 | 95 | 3.2 | 4.8 | 0.00 | 0.00 | 0.00 | 55 | 1009.5 |
| 20260508043033 | 15 | 124 | 0.0 | 3.2 | 0.00 | 0.00 | 0.00 | 53 | 1009.6 |
| 20260508042049 | 16 | 120 | 1.6 | 3.2 | 0.00 | 0.00 | 0.00 | 51 | 1009.5 |
| 20260508041017 | 16 | 0.0 | 0.0 | 0.00 | 0.00 | 0.00 | 50 | 1009.5 | |
| 20260508040028 | 16 | 0.0 | 0.0 | 0.00 | 0.00 | 0.00 | 48 | 1009.4 | |
| 20260508035018 | 17 | 0.0 | 0.0 | 0.00 | 0.00 | 0.00 | 47 | 1009.3 | |
| 20260508034027 | 17 | 201 | 3.2 | 6.4 | 0.00 | 0.00 | 0.00 | 47 | 1009.1 |
| 20260508033020 | 18 | 168 | 4.8 | 6.4 | 0.00 | 0.00 | 0.00 | 44 | 1009.0 |
| 20260508032028 | 19 | 10 | 4.8 | 6.4 | 0.00 | 0.00 | 0.00 | 42 | 1008.9 |
| 20260508031023 | 19 | 52 | 6.4 | 6.4 | 0.00 | 0.00 | 0.00 | 41 | 1008.9 |
| 20260508030033 | 20 | 34 | 4.8 | 6.4 | 0.00 | 0.00 | 0.00 | 41 | 1008.9 |
| 20260508025023 | 20 | 12 | 3.2 | 4.8 | 0.00 | 0.00 | 0.00 | 39 | 1008.6 |
| 20260508024025 | 21 | 29 | 3.2 | 3.2 | 0.00 | 0.00 | 0.00 | 38 | 1008.8 |
| 20260508023034 | 22 | 354 | 3.2 | 4.8 | 0.00 | 0.00 | 0.00 | 37 | 1008.6 |
| 20260508022026 | 23 | 348 | 3.2 | 4.8 | 0.00 | 0.00 | 0.00 | 35 | 1008.6 |
| 20260508021043 | 24 | 0.0 | 0.0 | 0.00 | 0.00 | 0.00 | 34 | 1008.5 | |
| 20260508020048 | 25 | 326 | 1.6 | 3.2 | 0.00 | 0.00 | 0.00 | 33 | 1008.5 |
| 20260508015021 | 25 | 359 | 4.8 | 8.0 | 0.00 | 0.00 | 0.00 | 32 | 1008.6 |
| 20260508014031 | 25 | 113 | 0.0 | 3.2 | 0.00 | 0.00 | 0.00 | 33 | 1008.5 |
| 20260508013025 | 25 | 165 | 1.6 | 4.8 | 0.00 | 0.00 | 0.00 | 33 | 1008.6 |
| 20260508012034 | 24 | 135 | 3.2 | 4.8 | 0.00 | 0.00 | 0.00 | 34 | 1008.6 |
| 20260508011026 | 23 | 107 | 3.2 | 6.4 | 0.00 | 0.00 | 0.00 | 35 | 1008.6 |
| 20260508010021 | 23 | 118 | 3.2 | 4.8 | 0.00 | 0.00 | 0.00 | 34 | 1008.7 |
| 20260508005031 | 23 | 75 | 6.4 | 9.7 | 0.00 | 0.00 | 0.00 | 35 | 1008.8 |
| 20260508004023 | 23 | 45 | 8.0 | 9.7 | 0.00 | 0.00 | 0.00 | 35 | 1008.9 |
| 20260508003032 | 23 | 1 | 6.4 | 8.0 | 0.00 | 0.00 | 0.00 | 35 | 1009.0 |
| 20260508002023 | 24 | 28 | 4.8 | 8.0 | 0.00 | 0.00 | 0.00 | 34 | 1009.1 |
| 20260508001033 | 25 | 352 | 6.4 | 9.7 | 0.00 | 0.00 | 0.00 | 34 | 1009.2 |
| 20260508000021 | 25 | 47 | 4.8 | 8.0 | 0.00 | 0.00 | 0.00 | 34 | 1009.3 |
| 20260507235034 | 26 | 299 | 6.4 | 9.7 | 0.00 | 0.00 | 0.00 | 33 | 1009.3 |
| 20260507234025 | 26 | 324 | 8.0 | 11.3 | 0.00 | 0.00 | 0.00 | 33 | 1009.4 |
| 20260507233020 | 26 | 40 | 9.7 | 12.9 | 0.00 | 0.00 | 0.00 | 32 | 1009.5 |
| 20260507232033 | 26 | 55 | 9.7 | 14.5 | 0.00 | 0.00 | 0.00 | 32 | 1009.7 |
| 20260507231024 | 26 | 4 | 9.7 | 16.1 | 0.00 | 0.00 | 0.00 | 33 | 1009.8 |
| 20260507230019 | 27 | 291 | 8.0 | 11.3 | 0.00 | 0.00 | 0.00 | 31 | 1009.8 |
| 20260507225028 | 28 | 295 | 4.8 | 8.0 | 0.00 | 0.00 | 0.00 | 31 | 1009.8 |
| 20260507224021 | 28 | 29 | 8.0 | 14.5 | 0.00 | 0.00 | 0.00 | 31 | 1010.1 |
| 20260507223030 | 26 | 308 | 4.8 | 8.0 | 0.00 | 0.00 | 0.00 | 32 | 1010.2 |
| 20260507222023 | 27 | 14 | 6.4 | 11.3 | 0.00 | 0.00 | 0.00 | 30 | 1010.2 |
| 20260507221033 | 27 | 342 | 9.7 | 12.9 | 0.00 | 0.00 | 0.00 | 31 | 1010.4 |
| 20260507220024 | 27 | 316 | 9.7 | 16.1 | 0.00 | 0.00 | 0.00 | 31 | 1010.5 |
| 20260507215021 | 26 | 297 | 9.7 | 14.5 | 0.00 | 0.00 | 0.00 | 31 | 1010.5 |
| 20260507214029 | 26 | 278 | 8.0 | 14.5 | 0.00 | 0.00 | 0.00 | 31 | 1010.6 |